createdAt,value
2023-02-08T00:00:14.802Z,16.10
2023-02-08T00:03:18.980Z,16.63
2023-02-08T00:06:22.828Z,15.73
2023-02-08T00:09:26.518Z,15.20
2023-02-08T00:12:30.339Z,15.67
2023-02-08T00:15:41.724Z,16.87
2023-02-08T00:18:45.541Z,14.87
2023-02-08T00:21:49.363Z,16.00
2023-02-08T00:24:53.100Z,14.87
2023-02-08T00:27:56.810Z,15.93
2023-02-08T00:31:01.949Z,15.17
2023-02-08T00:34:07.808Z,15.67
2023-02-08T00:37:12.493Z,14.63
2023-02-08T00:40:16.134Z,14.73
2023-02-08T00:43:19.802Z,15.60
2023-02-08T00:46:25.035Z,15.93
2023-02-08T00:49:28.758Z,15.03
2023-02-08T00:52:32.717Z,15.17
2023-02-08T00:55:36.322Z,14.63
2023-02-08T00:58:40.748Z,15.43
2023-02-08T01:01:45.893Z,14.47
2023-02-08T01:04:49.922Z,15.53
2023-02-08T01:07:53.597Z,15.83
2023-02-08T01:11:05.218Z,15.90
2023-02-08T01:14:08.936Z,15.87
2023-02-08T01:17:14.017Z,14.53
2023-02-08T01:20:18.168Z,16.13
2023-02-08T01:23:21.967Z,14.87
2023-02-08T01:26:27.160Z,14.83
2023-02-08T01:29:30.904Z,15.50
2023-02-08T01:32:35.980Z,15.70
2023-02-08T01:35:39.762Z,15.90
2023-02-08T01:38:43.844Z,15.43
2023-02-08T01:41:47.982Z,14.60
2023-02-08T01:45:30.169Z,15.80
2023-02-08T01:48:42.076Z,15.90
2023-02-08T01:51:51.684Z,15.00
2023-02-08T01:55:01.359Z,15.70
2023-02-08T01:58:11.310Z,15.47
2023-02-08T02:01:17.034Z,14.80
2023-02-08T02:04:22.804Z,15.30
2023-02-08T02:07:31.132Z,16.20
2023-02-08T02:10:38.495Z,15.43
2023-02-08T02:13:42.960Z,16.13
2023-02-08T02:16:46.706Z,16.33
2023-02-08T02:20:09.653Z,15.10
2023-02-08T02:23:50.008Z,15.53
2023-02-08T02:27:36.287Z,15.67
2023-02-08T02:31:42.186Z,15.83
2023-02-08T02:34:54.094Z,16.37
2023-02-08T02:38:11.695Z,15.50
2023-02-08T02:41:41.921Z,16.23
2023-02-08T02:45:01.151Z,15.60
2023-02-08T02:48:13.792Z,14.93
2023-02-08T02:51:27.366Z,16.10
2023-02-08T02:54:40.051Z,15.43
2023-02-08T02:57:47.513Z,16.23
2023-02-08T03:00:55.405Z,14.70
2023-02-08T03:03:59.970Z,14.80
2023-02-08T03:07:17.238Z,16.27
2023-02-08T03:10:46.343Z,16.17
2023-02-08T03:14:21.187Z,16.37
2023-02-08T03:17:56.058Z,16.23
2023-02-08T03:21:10.853Z,15.97
2023-02-08T03:24:29.213Z,17.33
2023-02-08T03:27:40.663Z,16.37
2023-02-08T03:30:55.065Z,17.57
2023-02-08T03:34:07.962Z,16.97
2023-02-08T03:37:17.658Z,16.97
2023-02-08T03:40:29.578Z,16.17
2023-02-08T03:43:40.184Z,16.17
2023-02-08T03:46:52.966Z,16.90
2023-02-08T03:50:03.992Z,17.70
2023-02-08T03:53:10.404Z,15.53
2023-02-08T03:56:22.248Z,15.83
2023-02-08T03:59:32.289Z,17.00
2023-02-08T04:02:45.019Z,16.70
2023-02-08T04:05:49.432Z,16.47
2023-02-08T04:08:53.227Z,15.57
2023-02-08T04:11:58.845Z,16.30
2023-02-08T04:15:02.623Z,16.80
2023-02-08T04:18:06.956Z,14.97
2023-02-08T04:21:10.769Z,16.57
2023-02-08T04:24:14.560Z,16.07
2023-02-08T04:27:19.680Z,15.97
2023-02-08T04:30:23.378Z,16.37
2023-02-08T04:33:27.192Z,17.00
2023-02-08T04:36:31.059Z,16.27
2023-02-08T04:39:34.955Z,15.97
2023-02-08T04:42:40.021Z,16.80
2023-02-08T04:45:43.774Z,17.07
2023-02-08T04:48:47.394Z,15.80
2023-02-08T04:51:51.210Z,16.07
2023-02-08T04:54:54.905Z,17.63
2023-02-08T04:58:00.183Z,17.77
2023-02-08T05:01:07.720Z,17.50
2023-02-08T05:04:11.992Z,16.73
2023-02-08T05:07:15.697Z,17.53
2023-02-08T05:10:19.623Z,18.33
2023-02-08T05:13:24.772Z,19.63
2023-02-08T05:16:28.646Z,18.60
2023-02-08T05:19:33.366Z,18.53
2023-02-08T05:22:37.242Z,19.00
2023-02-08T05:25:42.101Z,18.20
2023-02-08T05:29:08.030Z,18.97
2023-02-08T05:32:11.804Z,18.43
2023-02-08T05:35:15.638Z,19.20
2023-02-08T05:38:19.278Z,21.10
2023-02-08T05:41:23.238Z,21.57
2023-02-08T05:44:28.558Z,22.10
2023-02-08T05:47:32.299Z,21.73
2023-02-08T05:50:36.030Z,21.47
2023-02-08T05:53:40.261Z,21.50
2023-02-08T05:56:44.683Z,22.37
2023-02-08T05:59:50.123Z,19.53
2023-02-08T06:02:54.102Z,19.23
2023-02-08T06:06:02.120Z,19.73
2023-02-08T06:09:05.950Z,19.00
2023-02-08T06:12:09.909Z,20.37
2023-02-08T06:15:15.259Z,20.07
2023-02-08T06:18:18.976Z,19.57
2023-02-08T06:21:24.498Z,19.83
2023-02-08T06:24:28.453Z,20.17
2023-02-08T06:27:32.161Z,20.43
2023-02-08T06:30:37.904Z,19.40
2023-02-08T06:33:41.697Z,21.07
2023-02-08T06:36:45.810Z,22.50
2023-02-08T06:39:49.517Z,21.00
2023-02-08T06:42:53.255Z,20.53
2023-02-08T06:45:58.558Z,21.27
2023-02-08T06:49:02.312Z,21.77
2023-02-08T06:52:06.488Z,20.63
2023-02-08T06:55:10.357Z,19.93
2023-02-08T06:58:14.207Z,21.80
2023-02-08T07:01:19.351Z,21.87
2023-02-08T07:04:23.161Z,21.63
2023-02-08T07:07:27.034Z,21.90
2023-02-08T07:10:30.780Z,21.53
2023-02-08T07:13:34.490Z,23.67
2023-02-08T07:16:39.713Z,22.80
2023-02-08T07:19:43.428Z,24.00
2023-02-08T07:22:47.147Z,23.47
2023-02-08T07:25:59.758Z,23.00
2023-02-08T07:29:03.502Z,23.33
2023-02-08T07:32:09.985Z,23.63
2023-02-08T07:35:13.827Z,24.43
2023-02-08T07:38:20.591Z,25.60
2023-02-08T07:41:24.521Z,25.73
2023-02-08T07:44:28.355Z,26.37
2023-02-08T07:47:33.591Z,25.10
2023-02-08T07:50:38.098Z,26.67
2023-02-08T07:53:41.934Z,28.27
2023-02-08T07:56:45.711Z,27.07
2023-02-08T07:59:49.558Z,28.27
2023-02-08T08:02:55.390Z,26.80
2023-02-08T08:05:59.194Z,26.10
2023-02-08T08:09:02.999Z,26.07
2023-02-08T08:12:07.098Z,26.57
2023-02-08T08:15:11.628Z,26.97
2023-02-08T08:18:27.073Z,25.30
2023-02-08T08:21:32.830Z,26.57
2023-02-08T08:24:36.756Z,27.63
2023-02-08T08:27:42.524Z,27.67
2023-02-08T08:30:47.290Z,26.70
2023-02-08T08:33:52.634Z,26.20
2023-02-08T08:36:56.341Z,26.43
2023-02-08T08:39:59.989Z,26.00
2023-02-08T08:43:03.954Z,26.63
2023-02-08T08:46:08.712Z,26.43
2023-02-08T08:49:14.039Z,25.70
2023-02-08T08:52:18.271Z,24.30
2023-02-08T08:55:22.056Z,26.43
2023-02-08T08:58:25.798Z,25.47
2023-02-08T09:01:29.699Z,26.60
2023-02-08T09:04:35.352Z,25.10
2023-02-08T09:07:39.255Z,24.27
2023-02-08T09:10:43.248Z,24.20
2023-02-08T09:13:47.114Z,23.60
2023-02-08T09:16:50.807Z,24.30
2023-02-08T09:19:56.586Z,22.93
2023-02-08T09:23:00.323Z,21.10
2023-02-08T09:26:05.162Z,22.33
2023-02-08T09:29:09.327Z,23.03
2023-02-08T09:32:13.220Z,21.00
2023-02-08T09:35:18.454Z,22.10
2023-02-08T09:38:22.182Z,22.10
2023-02-08T09:41:57.759Z,21.90
2023-02-08T09:45:31.002Z,21.83
2023-02-08T09:48:39.221Z,21.10
2023-02-08T09:51:51.549Z,20.97
2023-02-08T09:55:01.635Z,21.00
2023-02-08T09:58:17.233Z,20.63
2023-02-08T10:01:25.529Z,20.37
2023-02-08T10:04:42.477Z,21.77
2023-02-08T10:07:47.960Z,19.80
2023-02-08T10:10:57.618Z,20.70
2023-02-08T10:14:36.466Z,21.17
2023-02-08T10:18:12.827Z,19.27
2023-02-08T10:21:52.604Z,20.23
2023-02-08T10:25:29.182Z,18.80
2023-02-08T10:29:01.888Z,19.63
2023-02-08T10:32:35.340Z,20.23
2023-02-08T10:35:44.621Z,18.43
2023-02-08T10:38:52.645Z,18.50
2023-02-08T10:41:58.079Z,18.73
2023-02-08T10:45:24.265Z,18.97
2023-02-08T10:48:46.437Z,19.20
2023-02-08T10:51:50.698Z,18.90
2023-02-08T10:54:55.377Z,18.83
2023-02-08T10:58:04.738Z,19.43
2023-02-08T11:01:10.354Z,19.97
2023-02-08T11:04:15.048Z,18.33
2023-02-08T11:07:22.343Z,18.83
2023-02-08T11:10:27.850Z,18.70
2023-02-08T11:13:39.160Z,18.90
2023-02-08T11:16:44.077Z,18.90
2023-02-08T11:19:51.186Z,19.17
2023-02-08T11:22:55.591Z,17.63
2023-02-08T11:26:19.502Z,19.23
2023-02-08T11:29:27.223Z,18.57
2023-02-08T11:32:33.763Z,17.00
2023-02-08T11:35:37.936Z,16.83
2023-02-08T11:38:44.465Z,17.87
2023-02-08T11:41:53.539Z,18.10
2023-02-08T11:45:00.982Z,17.73
2023-02-08T11:48:07.380Z,16.10
2023-02-08T11:51:15.341Z,16.30
2023-02-08T11:54:50.648Z,15.70
2023-02-08T11:58:03.497Z,16.83
2023-02-08T12:01:21.443Z,15.53
2023-02-08T12:04:25.207Z,17.00
2023-02-08T12:07:59.993Z,17.90
2023-02-08T12:11:17.838Z,16.53
2023-02-08T12:14:56.479Z,16.13
2023-02-08T12:18:28.711Z,15.27
2023-02-08T12:21:41.889Z,15.97
2023-02-08T12:24:55.587Z,15.60
2023-02-08T12:28:14.533Z,15.03
2023-02-08T12:31:30.804Z,15.73
2023-02-08T12:34:55.698Z,15.93
2023-02-08T12:38:25.457Z,14.40
2023-02-08T12:41:37.691Z,14.03
2023-02-08T12:45:04.364Z,15.03
2023-02-08T12:48:31.986Z,14.07
2023-02-08T12:51:50.030Z,14.83
2023-02-08T12:54:58.377Z,14.40
2023-02-08T12:58:22.410Z,14.07
2023-02-08T13:01:33.201Z,13.60
2023-02-08T13:04:42.649Z,13.37
2023-02-08T13:07:52.770Z,13.43
2023-02-08T13:11:18.853Z,12.60
2023-02-08T13:14:33.603Z,13.13
2023-02-08T13:17:48.318Z,11.90
2023-02-08T13:20:58.643Z,11.77
2023-02-08T13:24:13.095Z,11.60
2023-02-08T13:27:20.030Z,11.33
2023-02-08T13:30:24.671Z,13.00
2023-02-08T13:33:59.316Z,11.57
2023-02-08T13:37:24.827Z,12.37
2023-02-08T13:40:35.330Z,12.20
2023-02-08T13:43:44.977Z,12.37
2023-02-08T13:46:52.604Z,13.33
2023-02-08T13:50:00.992Z,11.50
2023-02-08T13:53:05.763Z,12.37
2023-02-08T13:56:13.294Z,11.77
2023-02-08T13:59:41.893Z,13.00
2023-02-08T14:03:04.099Z,12.97
2023-02-08T14:06:20.582Z,13.60
2023-02-08T14:09:32.414Z,13.13
2023-02-08T14:12:46.619Z,12.23
2023-02-08T14:16:28.448Z,13.17
2023-02-08T14:19:34.572Z,10.77
2023-02-08T14:22:51.724Z,11.63
2023-02-08T14:25:59.599Z,10.33
2023-02-08T14:29:08.117Z,11.40
2023-02-08T14:32:25.189Z,10.97
2023-02-08T14:35:31.652Z,11.43
2023-02-08T14:39:06.680Z,11.17
2023-02-08T14:42:14.063Z,10.73
2023-02-08T14:45:33.035Z,10.97
2023-02-08T14:48:45.581Z,10.43
2023-02-08T14:51:58.017Z,11.77
2023-02-08T14:55:11.707Z,11.57
2023-02-08T14:58:28.212Z,11.20
2023-02-08T15:01:44.389Z,11.63
2023-02-08T15:04:49.009Z,13.47
2023-02-08T15:07:56.312Z,13.37
2023-02-08T15:11:00.618Z,14.30
2023-02-08T15:14:07.157Z,14.77
2023-02-08T15:17:28.587Z,15.03
2023-02-08T15:20:35.653Z,14.10
2023-02-08T15:23:39.510Z,15.20
2023-02-08T15:26:47.653Z,14.57
2023-02-08T15:29:52.073Z,13.53
2023-02-08T15:32:59.033Z,14.27
2023-02-08T15:36:07.263Z,13.27
2023-02-08T15:39:24.394Z,13.93
2023-02-08T15:42:33.216Z,14.80
2023-02-08T15:45:37.210Z,13.97
2023-02-08T15:48:45.812Z,12.67
2023-02-08T15:51:51.091Z,14.23
2023-02-08T15:54:54.881Z,13.90
2023-02-08T15:58:04.302Z,14.23
2023-02-08T16:01:10.295Z,13.97
2023-02-08T16:04:15.519Z,14.33
2023-02-08T16:07:29.398Z,13.37
2023-02-08T16:10:40.144Z,13.27
2023-02-08T16:13:51.671Z,12.63
2023-02-08T16:16:58.100Z,13.50
2023-02-08T16:20:04.185Z,13.20
2023-02-08T16:23:26.965Z,13.10
2023-02-08T16:26:36.851Z,12.97
2023-02-08T16:29:42.273Z,10.97
2023-02-08T16:32:46.900Z,11.70
2023-02-08T16:35:53.574Z,11.00
2023-02-08T16:39:46.900Z,9.83
2023-02-08T16:42:50.640Z,9.67
2023-02-08T16:46:27.783Z,9.60
2023-02-08T16:49:31.511Z,9.40
2023-02-08T16:52:37.433Z,8.47
2023-02-08T16:55:41.184Z,9.07
2023-02-08T16:58:44.916Z,8.37
2023-02-08T17:01:50.274Z,8.40
2023-02-08T17:04:54.676Z,8.50
2023-02-08T17:08:01.718Z,9.27
2023-02-08T17:11:06.914Z,8.83
2023-02-08T17:14:11.333Z,9.23
2023-02-08T17:17:15.158Z,8.67
2023-02-08T17:20:23.750Z,9.33
2023-02-08T17:23:29.036Z,9.23
2023-02-08T17:26:40.904Z,9.03
2023-02-08T17:29:44.788Z,8.47
2023-02-08T17:32:49.494Z,9.07
2023-02-08T17:35:54.203Z,9.53
2023-02-08T17:38:59.797Z,9.00
2023-02-08T17:42:03.509Z,9.40
2023-02-08T17:45:08.158Z,9.23
2023-02-08T17:48:13.513Z,9.10
2023-02-08T17:51:19.933Z,9.07
2023-02-08T17:54:25.071Z,9.17
2023-02-08T17:57:28.872Z,9.83
2023-02-08T18:00:34.785Z,9.43
2023-02-08T18:03:38.400Z,9.60
2023-02-08T18:06:42.083Z,9.60
2023-02-08T18:09:47.190Z,8.27
2023-02-08T18:12:51.318Z,10.70
2023-02-08T18:15:55.162Z,9.37
2023-02-08T18:19:01.908Z,8.67
2023-02-08T18:22:06.255Z,9.23
2023-02-08T18:25:14.390Z,8.93
2023-02-08T18:28:18.149Z,9.07
2023-02-08T18:31:22.957Z,9.20
2023-02-08T18:34:27.848Z,9.23
2023-02-08T18:37:32.218Z,11.07
2023-02-08T18:40:37.476Z,10.67
2023-02-08T18:43:42.136Z,9.63
2023-02-08T18:46:47.893Z,10.10
2023-02-08T18:49:55.702Z,9.90
2023-02-08T18:52:59.507Z,10.47
2023-02-08T18:56:07.178Z,11.60
2023-02-08T18:59:11.753Z,11.57
2023-02-08T19:02:22.065Z,11.00
2023-02-08T19:05:26.128Z,11.70
2023-02-08T19:08:29.867Z,11.50
2023-02-08T19:11:37.369Z,13.47
2023-02-08T19:14:41.223Z,13.00
2023-02-08T19:17:44.954Z,13.03
2023-02-08T19:20:48.643Z,12.37
2023-02-08T19:23:55.652Z,12.57
2023-02-08T19:27:01.099Z,11.27
2023-02-08T19:30:06.973Z,12.70
2023-02-08T19:33:10.670Z,11.63
2023-02-08T19:36:18.449Z,12.20
2023-02-08T19:39:25.613Z,12.97
2023-02-08T19:42:30.871Z,13.47
2023-02-08T19:45:44.692Z,12.43
2023-02-08T19:48:49.136Z,13.83
2023-02-08T19:51:52.969Z,13.17
2023-02-08T19:54:56.653Z,14.93
2023-02-08T19:58:02.105Z,13.40
2023-02-08T20:01:09.118Z,13.97
2023-02-08T20:04:13.705Z,15.27
2023-02-08T20:07:17.607Z,14.50
2023-02-08T20:10:21.583Z,14.40
2023-02-08T20:13:26.682Z,14.33
2023-02-08T20:16:32.137Z,16.17
2023-02-08T20:19:38.858Z,16.03
2023-02-08T20:22:42.745Z,16.47
2023-02-08T20:25:46.749Z,16.70
2023-02-08T20:28:55.506Z,15.53
2023-02-08T20:31:59.767Z,16.53
2023-02-08T20:35:04.030Z,16.77
2023-02-08T20:38:07.718Z,16.20
2023-02-08T20:41:15.413Z,17.20
2023-02-08T20:44:20.762Z,18.20
2023-02-08T20:47:24.996Z,17.53
2023-02-08T20:50:30.950Z,18.87
2023-02-08T20:53:35.691Z,18.40
2023-02-08T20:56:40.515Z,15.97
2023-02-08T20:59:46.703Z,18.33
2023-02-08T21:02:50.497Z,18.37
2023-02-08T21:05:54.508Z,19.60
2023-02-08T21:08:59.235Z,19.13
2023-02-08T21:12:03.114Z,18.30
2023-02-08T21:15:10.439Z,20.03
2023-02-08T21:18:14.147Z,18.57
2023-02-08T21:21:19.236Z,19.77
2023-02-08T21:24:24.010Z,21.33
2023-02-08T21:27:27.774Z,22.23
2023-02-08T21:30:33.113Z,19.60
2023-02-08T21:33:37.035Z,21.07
2023-02-08T21:36:41.244Z,21.10
2023-02-08T21:39:47.206Z,21.73
2023-02-08T21:42:51.032Z,20.73
2023-02-08T21:45:56.306Z,21.77
2023-02-08T21:49:18.227Z,22.00
2023-02-08T21:52:39.358Z,19.90
2023-02-08T21:55:47.597Z,20.90
2023-02-08T21:58:51.433Z,19.97
2023-02-08T22:01:56.750Z,21.90
2023-02-08T22:05:22.107Z,21.47
2023-02-08T22:08:26.071Z,22.13
2023-02-08T22:11:29.872Z,23.03
2023-02-08T22:14:36.228Z,21.80
2023-02-08T22:17:41.731Z,20.30
2023-02-08T22:20:45.774Z,23.27
2023-02-08T22:23:49.864Z,24.03
2023-02-08T22:26:53.582Z,24.23
2023-02-08T22:29:57.392Z,23.37
2023-02-08T22:33:02.551Z,23.30
2023-02-08T22:36:08.567Z,24.03
2023-02-08T22:39:12.454Z,24.20
2023-02-08T22:42:16.260Z,23.80
2023-02-08T22:45:20.160Z,22.37
2023-02-08T22:48:25.324Z,25.23
2023-02-08T22:51:29.008Z,24.53
2023-02-08T22:54:32.888Z,24.40
2023-02-08T22:57:37.367Z,24.43
2023-02-08T23:00:44.600Z,26.27
2023-02-08T23:03:49.957Z,25.47
2023-02-08T23:06:53.683Z,26.43
2023-02-08T23:09:57.369Z,26.00
2023-02-08T23:13:01.575Z,25.10
2023-02-08T23:16:05.886Z,25.03
2023-02-08T23:19:15.128Z,24.57
2023-02-08T23:22:18.814Z,26.17
2023-02-08T23:25:22.995Z,25.43
2023-02-08T23:28:26.872Z,26.20
2023-02-08T23:31:30.900Z,26.27
2023-02-08T23:34:37.113Z,24.03
2023-02-08T23:37:41.097Z,24.43
2023-02-08T23:40:45.025Z,25.53
2023-02-08T23:43:50.739Z,25.50
2023-02-08T23:46:54.537Z,25.77
2023-02-08T23:49:59.786Z,24.00
2023-02-08T23:53:03.477Z,24.63
2023-02-08T23:56:15.347Z,27.13
2023-02-08T23:59:19.078Z,23.97
